Mistral — TCCH — position and weather

sailwx.info

Track history (hours):
 
Tides and Currents Weather Stations Pressure Air Temp Water Temp Dewpoint Dewpoint Depression Visibility Wind Speed Wind Dir Waves Ship Positions

Mistral

Last reported at 2017-May-20 23:42 UTC. Time now 2017-Jun-24 10:34 UTC.
Position N 36°40' E 014°32'.
Warning: this ship's position is 34 days out of date.

Length 126 m; draft 7 m.

Type: Ship. MMSI: 271000615.

Date/timePositionNaut miles runAvg speedWind from/ knotsBaromVisibWave heightAir tempDewpointWater temp
2017-May-20 23:42N 36°40' E 014°32'210.0
2017-May-20 23:30N 36°41' E 014°30'510.1
2017-May-20 23:00N 36°43' E 014°24'510.1
2017-May-20 22:30N 36°46' E 014°19'5 9.7
2017-May-20 22:00N 36°47' E 014°13'5 9.7
2017-May-20 21:30N 36°48' E 014°07'510.3
2017-May-20 21:00N 36°50' E 014°01'510.2
2017-May-20 20:30N 36°53' E 013°56'510.1
2017-May-20 20:00N 36°56' E 013°51'510.1
2017-May-20 19:30N 36°58' E 013°45'610.0
2017-May-20 18:56N 37°00' E 013°38'  
2017-May-18 12:28N 36°53' E 002°51'6 9.7
2017-May-18 11:53N 36°52' E 002°44'4 9.7
2017-May-18 11:28N 36°51' E 002°39'112 9.7
2017-May-17 23:50N 36°41' E 000°19'3 9.7
2017-May-17 23:30N 36°41' E 000°15'442 8.6
2017-May-15 20:07N 36°31' W 008°55'1 9.8
2017-May-15 20:00N 36°31' W 008°57'10 9.6
2017-May-15 18:57N 36°34' W 009°09'5 9.8
2017-May-15 18:27N 36°35' W 009°15'4 9.5
2017-May-15 18:00N 36°37' W 009°19'510.0
2017-May-15 17:30N 36°40' W 009°24'510.0
2017-May-15 17:00N 36°44' W 009°28'510.2
2017-May-15 16:30N 36°48' W 009°32'5 9.6
2017-May-15 16:00N 36°52' W 009°34'7 9.4
2017-May-15 15:18N 36°59' W 009°36'3 9.3
2017-May-15 15:00N 37°02' W 009°36'5 9.7
2017-May-15 14:28N 37°07' W 009°38'20 9.6
2017-May-15 12:23N 37°26' W 009°43'4 9.5
2017-May-15 12:00N 37°30' W 009°44'5 9.3
2017-May-15 11:30N 37°34' W 009°45'7 9.2
2017-May-15 10:47N 37°41' W 009°47'3 9.5
2017-May-15 10:29N 37°44' W 009°48'6 9.5
2017-May-15 09:53N 37°49' W 009°49'8 9.0
2017-May-15 09:03N 37°57' W 009°51'1 9.3
2017-May-15 09:00N 37°57' W 009°51'5 9.4
2017-May-15 08:27N 38°02' W 009°53'13 9.1
2017-May-15 07:04N 38°14' W 009°56'1 8.8
2017-May-15 07:00N 38°15' W 009°56'5 8.7
2017-May-15 06:29N 38°19' W 009°58'4 8.9
2017-May-15 06:00N 38°23' W 009°60'5 9.1
2017-May-15 05:30N 38°28' W 010°01'4 9.0
2017-May-15 05:01N 38°32' W 010°02'4 8.8
2017-May-15 04:30N 38°36' W 010°03'4 8.7
2017-May-15 04:00N 38°41' W 010°05'4 8.7
2017-May-15 03:31N 38°45' W 010°05'4 8.8
2017-May-15 03:00N 38°49' W 010°05'5 9.2
2017-May-15 02:31N 38°54' W 010°05'5 8.7
2017-May-15 01:59N 38°58' W 010°04'4 9.3
2017-May-15 01:30N 39°03' W 010°03'5 9.5
2017-May-15 01:00N 39°07' W 010°01'5 9.3
2017-May-15 00:30N 39°12' W 010°00'  
2017-May-11 08:29N 49°52' W 003°17'4 8.7
2017-May-11 08:01N 49°54' W 003°11'5 8.3
2017-May-11 07:26N 49°57' W 003°05'3 8.2
2017-May-11 07:00N 49°58' W 003°00'4 8.0
2017-May-11 06:31N 49°60' W 002°55'6311.2
2017-May-11 00:51N 50°16' W 001°19'412.6
2017-May-11 00:30N 50°18' W 001°13'611.9
2017-May-10 23:59N 50°19' W 001°03'  
Track history (hours):
 
Tides and Currents Weather Stations Pressure Air Temp Water Temp Dewpoint Dewpoint Depression Visibility Wind Speed Wind Dir Waves Ship Positions

Mistral

Last reported at 2017-May-20 23:42 UTC. Time now 2017-Jun-24 10:34 UTC.
Position N 36°40' E 014°32'.
Warning: this ship's position is 34 days out of date.

Length 126 m; draft 7 m.

Type: Ship. MMSI: 271000615.

Date/timePositionNaut miles runAvg speedWind from/ knotsBaromVisibWave heightAir tempDewpointWater temp
2017-May-20 23:42N 36°40' E 014°32'210.0
2017-May-20 23:30N 36°41' E 014°30'510.1
2017-May-20 23:00N 36°43' E 014°24'510.1
2017-May-20 22:30N 36°46' E 014°19'5 9.7
2017-May-20 22:00N 36°47' E 014°13'5 9.7
2017-May-20 21:30N 36°48' E 014°07'510.3
2017-May-20 21:00N 36°50' E 014°01'510.2
2017-May-20 20:30N 36°53' E 013°56'510.1
2017-May-20 20:00N 36°56' E 013°51'510.1
2017-May-20 19:30N 36°58' E 013°45'610.0
2017-May-20 18:56N 37°00' E 013°38'  
2017-May-18 12:28N 36°53' E 002°51'6 9.7
2017-May-18 11:53N 36°52' E 002°44'4 9.7
2017-May-18 11:28N 36°51' E 002°39'112 9.7
2017-May-17 23:50N 36°41' E 000°19'3 9.7
2017-May-17 23:30N 36°41' E 000°15'442 8.6
2017-May-15 20:07N 36°31' W 008°55'1 9.8
2017-May-15 20:00N 36°31' W 008°57'10 9.6
2017-May-15 18:57N 36°34' W 009°09'5 9.8
2017-May-15 18:27N 36°35' W 009°15'4 9.5
2017-May-15 18:00N 36°37' W 009°19'510.0
2017-May-15 17:30N 36°40' W 009°24'510.0
2017-May-15 17:00N 36°44' W 009°28'510.2
2017-May-15 16:30N 36°48' W 009°32'5 9.6
2017-May-15 16:00N 36°52' W 009°34'7 9.4
2017-May-15 15:18N 36°59' W 009°36'3 9.3
2017-May-15 15:00N 37°02' W 009°36'5 9.7
2017-May-15 14:28N 37°07' W 009°38'20 9.6
2017-May-15 12:23N 37°26' W 009°43'4 9.5
2017-May-15 12:00N 37°30' W 009°44'5 9.3
2017-May-15 11:30N 37°34' W 009°45'7 9.2
2017-May-15 10:47N 37°41' W 009°47'3 9.5
2017-May-15 10:29N 37°44' W 009°48'6 9.5
2017-May-15 09:53N 37°49' W 009°49'8 9.0
2017-May-15 09:03N 37°57' W 009°51'1 9.3
2017-May-15 09:00N 37°57' W 009°51'5 9.4
2017-May-15 08:27N 38°02' W 009°53'13 9.1
2017-May-15 07:04N 38°14' W 009°56'1 8.8
2017-May-15 07:00N 38°15' W 009°56'5 8.7
2017-May-15 06:29N 38°19' W 009°58'4 8.9
2017-May-15 06:00N 38°23' W 009°60'5 9.1
2017-May-15 05:30N 38°28' W 010°01'4 9.0
2017-May-15 05:01N 38°32' W 010°02'4 8.8
2017-May-15 04:30N 38°36' W 010°03'4 8.7
2017-May-15 04:00N 38°41' W 010°05'4 8.7
2017-May-15 03:31N 38°45' W 010°05'4 8.8
2017-May-15 03:00N 38°49' W 010°05'5 9.2
2017-May-15 02:31N 38°54' W 010°05'5 8.7
2017-May-15 01:59N 38°58' W 010°04'4 9.3
2017-May-15 01:30N 39°03' W 010°03'5 9.5
2017-May-15 01:00N 39°07' W 010°01'5 9.3
2017-May-15 00:30N 39°12' W 010°00'  
2017-May-11 08:29N 49°52' W 003°17'4 8.7
2017-May-11 08:01N 49°54' W 003°11'5 8.3
2017-May-11 07:26N 49°57' W 003°05'3 8.2
2017-May-11 07:00N 49°58' W 003°00'4 8.0
2017-May-11 06:31N 49°60' W 002°55'6311.2
2017-May-11 00:51N 50°16' W 001°19'412.6
2017-May-11 00:30N 50°18' W 001°13'611.9
2017-May-10 23:59N 50°19' W 001°03'  

Dump ship's entire track history